createdAt,value
2023-04-03T00:00:58.413Z,2.94
2023-04-03T00:03:26.189Z,3.00
2023-04-03T00:05:53.467Z,2.91
2023-04-03T00:08:21.198Z,2.91
2023-04-03T00:10:48.771Z,3.18
2023-04-03T00:13:16.436Z,3.09
2023-04-03T00:15:44.159Z,3.08
2023-04-03T00:18:11.829Z,3.02
2023-04-03T00:20:39.372Z,2.78
2023-04-03T00:23:07.462Z,2.97
2023-04-03T00:25:35.853Z,3.05
2023-04-03T00:28:04.885Z,2.99
2023-04-03T00:30:32.700Z,2.91
2023-04-03T00:33:01.675Z,2.93
2023-04-03T00:35:29.889Z,2.83
2023-04-03T00:37:57.884Z,2.83
2023-04-03T00:40:27.771Z,2.77
2023-04-03T00:43:00.770Z,2.94
2023-04-03T00:45:36.377Z,2.90
2023-04-03T00:48:07.450Z,2.81
2023-04-03T00:50:40.011Z,3.03
2023-04-03T00:53:11.022Z,2.93
2023-04-03T00:55:39.612Z,2.85
2023-04-03T00:58:09.046Z,3.02
2023-04-03T01:00:40.042Z,3.15
2023-04-03T01:03:07.929Z,3.01
2023-04-03T01:05:36.859Z,3.09
2023-04-03T01:08:04.601Z,2.79
2023-04-03T01:10:32.150Z,2.93
2023-04-03T01:13:01.813Z,3.12
2023-04-03T01:15:35.982Z,2.84
2023-04-03T01:18:05.862Z,2.70
2023-04-03T01:20:33.165Z,2.58
2023-04-03T01:23:11.170Z,2.48
2023-04-03T01:25:49.689Z,2.46
2023-04-03T01:28:26.904Z,2.52
2023-04-03T01:30:54.044Z,2.55
2023-04-03T01:33:22.124Z,2.39
2023-04-03T01:35:49.865Z,2.47
2023-04-03T01:38:17.891Z,2.41
2023-04-03T01:40:45.346Z,2.59
2023-04-03T01:43:13.204Z,2.71
2023-04-03T01:45:40.564Z,2.38
2023-04-03T01:48:08.133Z,2.40
2023-04-03T01:50:35.599Z,2.48
2023-04-03T01:53:03.652Z,2.60
2023-04-03T01:55:31.052Z,2.58
2023-04-03T01:57:58.598Z,2.52
2023-04-03T02:00:27.707Z,2.57
2023-04-03T02:02:55.519Z,2.49
2023-04-03T02:05:22.884Z,2.49
2023-04-03T02:07:51.153Z,2.62
2023-04-03T02:10:18.627Z,2.29
2023-04-03T02:12:46.348Z,2.48
2023-04-03T02:15:13.810Z,2.40
2023-04-03T02:17:41.414Z,2.45
2023-04-03T02:20:09.582Z,2.54
2023-04-03T02:22:37.321Z,2.39
2023-04-03T02:25:05.164Z,2.61
2023-04-03T02:27:32.875Z,2.52
2023-04-03T02:30:00.112Z,2.52
2023-04-03T02:32:27.820Z,2.50
2023-04-03T02:34:55.439Z,2.45
2023-04-03T02:37:23.791Z,2.42
2023-04-03T02:39:53.539Z,2.51
2023-04-03T02:42:21.348Z,2.63
2023-04-03T02:44:48.695Z,2.55
2023-04-03T02:47:16.917Z,2.70
2023-04-03T02:49:46.184Z,2.78
2023-04-03T02:52:14.877Z,2.60
2023-04-03T02:54:42.551Z,2.73
2023-04-03T02:57:11.972Z,2.53
2023-04-03T02:59:42.722Z,2.51
2023-04-03T03:02:12.552Z,2.65
2023-04-03T03:04:39.976Z,2.56
2023-04-03T03:07:07.621Z,2.74
2023-04-03T03:09:35.116Z,2.50
2023-04-03T03:12:02.667Z,2.41
2023-04-03T03:14:31.135Z,2.36
2023-04-03T03:16:58.739Z,2.55
2023-04-03T03:19:26.162Z,2.72
2023-04-03T03:21:53.704Z,2.64
2023-04-03T03:24:21.103Z,2.51
2023-04-03T03:26:49.338Z,2.37
2023-04-03T03:29:16.592Z,2.50
2023-04-03T03:31:45.125Z,2.45
2023-04-03T03:34:12.917Z,2.53
2023-04-03T03:36:40.990Z,2.40
2023-04-03T03:39:08.352Z,2.64
2023-04-03T03:41:36.005Z,2.56
2023-04-03T03:44:04.137Z,2.48
2023-04-03T03:46:33.362Z,2.61
2023-04-03T03:49:00.836Z,2.58
2023-04-03T03:51:28.906Z,2.61
2023-04-03T03:53:56.724Z,2.29
2023-04-03T03:56:24.674Z,2.51
2023-04-03T03:58:52.048Z,2.48
2023-04-03T04:01:19.586Z,2.32
2023-04-03T04:03:49.282Z,2.12
2023-04-03T04:06:21.740Z,2.32
2023-04-03T04:08:49.667Z,2.45
2023-04-03T04:11:17.450Z,2.32
2023-04-03T04:13:46.529Z,2.22
2023-04-03T04:16:15.636Z,2.43
2023-04-03T04:18:42.937Z,2.52
2023-04-03T04:21:10.624Z,2.40
2023-04-03T04:23:39.528Z,2.48
2023-04-03T04:26:07.147Z,2.47
2023-04-03T04:28:37.274Z,2.61
2023-04-03T04:31:06.237Z,2.34
2023-04-03T04:33:33.923Z,2.50
2023-04-03T04:36:05.172Z,2.42
2023-04-03T04:38:33.467Z,2.40
2023-04-03T04:41:01.192Z,2.50
2023-04-03T04:43:28.804Z,2.39
2023-04-03T04:46:05.254Z,2.23
2023-04-03T04:48:36.772Z,2.42
2023-04-03T04:51:06.046Z,2.45
2023-04-03T04:53:34.091Z,2.38
2023-04-03T04:56:01.980Z,2.46
2023-04-03T04:58:31.029Z,2.55
2023-04-03T05:01:07.848Z,2.44
2023-04-03T05:03:38.899Z,2.34
2023-04-03T05:06:07.001Z,2.31
2023-04-03T05:08:36.380Z,2.24
2023-04-03T05:11:05.052Z,2.57
2023-04-03T05:13:32.630Z,2.37
2023-04-03T05:16:00.469Z,2.52
2023-04-03T05:18:28.441Z,2.27
2023-04-03T05:20:59.837Z,2.52
2023-04-03T05:23:27.792Z,2.52
2023-04-03T05:25:56.983Z,2.63
2023-04-03T05:28:24.559Z,2.63
2023-04-03T05:30:58.109Z,2.71
2023-04-03T05:33:30.772Z,2.54
2023-04-03T05:36:04.950Z,2.54
2023-04-03T05:38:34.517Z,2.74
2023-04-03T05:41:02.408Z,2.48
2023-04-03T05:43:29.780Z,2.76
2023-04-03T05:45:57.650Z,3.14
2023-04-03T05:48:27.669Z,2.92
2023-04-03T05:50:57.036Z,2.82
2023-04-03T05:53:29.444Z,2.58
2023-04-03T05:56:00.415Z,2.48
2023-04-03T05:58:28.500Z,2.78
2023-04-03T06:00:56.453Z,2.84
2023-04-03T06:03:24.461Z,3.51
2023-04-03T06:05:52.249Z,3.39
2023-04-03T06:08:19.802Z,3.11
2023-04-03T06:10:47.527Z,5.91
2023-04-03T06:13:14.823Z,9.39
2023-04-03T06:15:42.308Z,9.95
2023-04-03T06:18:10.145Z,7.65
2023-04-03T06:20:38.289Z,6.14
2023-04-03T06:23:07.449Z,5.32
2023-04-03T06:25:36.177Z,5.73
2023-04-03T06:28:03.434Z,7.83
2023-04-03T06:30:31.309Z,9.43
2023-04-03T06:33:00.461Z,11.05
2023-04-03T06:35:29.620Z,9.26
2023-04-03T06:37:57.284Z,10.16
2023-04-03T06:40:27.482Z,12.06
2023-04-03T06:42:54.833Z,14.08
2023-04-03T06:45:23.376Z,14.87
2023-04-03T06:47:50.706Z,11.55
2023-04-03T06:50:18.272Z,11.03
2023-04-03T06:52:45.895Z,8.73
2023-04-03T06:55:13.507Z,7.53
2023-04-03T06:57:40.798Z,6.19
2023-04-03T07:00:10.259Z,8.77
2023-04-03T07:02:37.727Z,9.27
2023-04-03T07:05:05.690Z,5.58
2023-04-03T07:07:35.008Z,4.73
2023-04-03T07:10:03.066Z,4.82
2023-04-03T07:12:30.385Z,4.25
2023-04-03T07:14:57.956Z,4.05
2023-04-03T07:17:26.386Z,7.18
2023-04-03T07:19:54.066Z,8.40
2023-04-03T07:22:21.347Z,7.45
2023-04-03T07:24:48.895Z,5.84
2023-04-03T07:27:16.335Z,5.38
2023-04-03T07:29:44.037Z,6.53
2023-04-03T07:32:12.041Z,5.63
2023-04-03T07:34:39.617Z,4.83
2023-04-03T07:37:07.596Z,4.96
2023-04-03T07:39:35.337Z,4.81
2023-04-03T07:42:03.049Z,4.64
2023-04-03T07:44:31.210Z,5.81
2023-04-03T07:46:58.498Z,6.42
2023-04-03T07:49:27.169Z,5.40
2023-04-03T07:51:54.393Z,5.48
2023-04-03T07:54:21.913Z,7.94
2023-04-03T07:56:49.553Z,7.19
2023-04-03T07:59:17.163Z,5.38
2023-04-03T08:01:44.649Z,5.26
2023-04-03T08:04:12.222Z,4.80
2023-04-03T08:06:46.539Z,4.53
2023-04-03T08:09:16.543Z,4.54
2023-04-03T08:11:44.531Z,4.83
2023-04-03T08:14:17.671Z,5.96
2023-04-03T08:16:47.098Z,7.22
2023-04-03T08:19:25.617Z,7.21
2023-04-03T08:21:55.763Z,6.32
2023-04-03T08:24:23.701Z,7.52
2023-04-03T08:26:51.168Z,5.69
2023-04-03T08:29:18.735Z,6.76
2023-04-03T08:31:47.403Z,8.69
2023-04-03T08:34:15.784Z,9.67
2023-04-03T08:36:43.780Z,13.81
2023-04-03T08:39:11.562Z,13.91
2023-04-03T08:41:40.666Z,15.22
2023-04-03T08:44:56.321Z,14.69
2023-04-03T08:47:39.701Z,15.53
2023-04-03T08:50:13.040Z,11.21
2023-04-03T08:52:47.481Z,9.96
2023-04-03T08:55:24.411Z,8.21
2023-04-03T08:58:02.862Z,7.92
2023-04-03T09:00:59.620Z,7.25
2023-04-03T09:03:37.494Z,7.40
2023-04-03T09:06:12.454Z,8.17
2023-04-03T09:09:10.765Z,6.58
2023-04-03T09:12:01.218Z,7.78
2023-04-03T09:14:39.315Z,8.81
2023-04-03T09:17:31.692Z,10.47
2023-04-03T09:20:08.034Z,9.62
2023-04-03T09:22:45.669Z,8.62
2023-04-03T09:25:43.145Z,7.62
2023-04-03T09:28:11.211Z,9.13
2023-04-03T09:30:42.509Z,10.54
2023-04-03T09:33:11.223Z,11.19
2023-04-03T09:35:48.027Z,10.40
2023-04-03T09:38:20.332Z,8.47
2023-04-03T09:41:03.745Z,7.16
2023-04-03T09:43:33.769Z,7.81
2023-04-03T09:46:27.611Z,7.15
2023-04-03T09:49:09.607Z,6.72
2023-04-03T09:51:37.749Z,7.30
2023-04-03T09:54:32.128Z,10.01
2023-04-03T09:57:08.532Z,10.54
2023-04-03T09:59:36.442Z,9.35
2023-04-03T10:02:22.600Z,8.15
2023-04-03T10:05:02.546Z,9.36
2023-04-03T10:07:39.028Z,7.64
2023-04-03T10:10:15.621Z,6.74
2023-04-03T10:12:42.847Z,6.33
2023-04-03T10:15:21.078Z,5.66
2023-04-03T10:18:29.238Z,5.63
2023-04-03T10:21:09.687Z,5.43
2023-04-03T10:23:47.354Z,5.71
2023-04-03T10:26:17.929Z,5.04
2023-04-03T10:28:51.091Z,5.45
2023-04-03T10:31:30.138Z,5.39
2023-04-03T10:34:06.196Z,6.03
2023-04-03T10:36:57.569Z,5.41
2023-04-03T10:40:02.466Z,5.66
2023-04-03T10:42:40.945Z,5.15
2023-04-03T10:45:37.622Z,5.24
2023-04-03T10:48:24.591Z,5.51
2023-04-03T10:51:13.066Z,5.10
2023-04-03T10:53:58.108Z,4.77
2023-04-03T10:56:51.240Z,5.48
2023-04-03T10:59:33.860Z,5.08
2023-04-03T11:02:07.310Z,5.25
2023-04-03T11:04:40.592Z,5.88
2023-04-03T11:07:39.854Z,5.99
2023-04-03T11:10:17.856Z,5.38
2023-04-03T11:12:53.765Z,5.83
2023-04-03T11:15:24.823Z,6.02
2023-04-03T11:17:56.767Z,4.96
2023-04-03T11:20:38.725Z,4.53
2023-04-03T11:23:23.023Z,4.94
2023-04-03T11:25:55.237Z,5.43
2023-04-03T11:28:22.434Z,5.89
2023-04-03T11:31:01.968Z,6.07
2023-04-03T11:33:33.919Z,6.20
2023-04-03T11:36:19.052Z,5.87
2023-04-03T11:38:57.778Z,7.04
2023-04-03T11:41:30.176Z,6.02
2023-04-03T11:44:05.076Z,5.53
2023-04-03T11:46:58.587Z,5.32
2023-04-03T11:50:02.145Z,5.99
2023-04-03T11:52:44.645Z,5.97
2023-04-03T11:55:21.858Z,6.74
2023-04-03T11:57:58.601Z,6.58
2023-04-03T12:00:44.863Z,6.89
2023-04-03T12:03:28.886Z,6.85
2023-04-03T12:06:05.681Z,6.19
2023-04-03T12:08:46.154Z,6.76
2023-04-03T12:11:13.483Z,5.95
2023-04-03T12:13:50.083Z,6.07
2023-04-03T12:16:29.981Z,6.37
2023-04-03T12:19:17.066Z,6.06
2023-04-03T12:21:50.154Z,5.41
2023-04-03T12:24:17.593Z,5.39
2023-04-03T12:27:04.204Z,5.43
2023-04-03T12:29:35.107Z,4.80
2023-04-03T12:32:27.585Z,5.13
2023-04-03T12:35:32.702Z,4.99
2023-04-03T12:38:25.399Z,5.25
2023-04-03T12:41:24.121Z,4.72
2023-04-03T12:44:07.932Z,4.77
2023-04-03T12:46:50.416Z,4.84
2023-04-03T12:49:39.496Z,4.78
2023-04-03T12:52:31.422Z,4.90
2023-04-03T12:55:01.348Z,5.34
2023-04-03T12:57:28.970Z,5.26
2023-04-03T12:59:56.435Z,5.48
2023-04-03T13:02:28.212Z,5.16
2023-04-03T13:05:05.911Z,5.24
2023-04-03T13:07:39.990Z,5.47
2023-04-03T13:12:50.608Z,5.40
2023-04-03T13:15:26.018Z,6.06
2023-04-03T13:17:55.077Z,6.47
2023-04-03T13:20:27.232Z,6.22
2023-04-03T13:22:57.994Z,5.53
2023-04-03T13:25:28.628Z,5.10
2023-04-03T13:30:34.675Z,4.68
2023-04-03T13:33:05.750Z,4.49
2023-04-03T13:35:39.976Z,4.38
2023-04-03T13:38:19.754Z,4.34
2023-04-03T13:41:03.545Z,4.33
2023-04-03T13:43:34.812Z,4.70
2023-04-03T13:46:02.512Z,4.72
2023-04-03T13:48:36.651Z,4.65
2023-04-03T13:51:32.249Z,4.91
2023-04-03T13:54:20.350Z,5.00
2023-04-03T13:56:47.707Z,4.45
2023-04-03T13:59:17.974Z,4.39
2023-04-03T14:01:47.310Z,4.05
2023-04-03T14:04:20.045Z,4.08
2023-04-03T14:06:48.816Z,4.08
2023-04-03T14:09:18.610Z,3.81
2023-04-03T14:11:47.426Z,4.09
2023-04-03T14:14:19.794Z,3.95
2023-04-03T14:16:52.976Z,4.15
2023-04-03T14:19:26.869Z,4.00
2023-04-03T14:21:56.842Z,4.19
2023-04-03T14:24:25.108Z,4.23
2023-04-03T14:26:56.600Z,4.44
2023-04-03T14:29:24.278Z,4.57
2023-04-03T14:32:00.389Z,4.57
2023-04-03T14:34:35.328Z,4.62
2023-04-03T14:37:02.607Z,4.82
2023-04-03T14:39:31.376Z,4.73
2023-04-03T14:41:58.615Z,4.57
2023-04-03T14:44:26.292Z,5.05
2023-04-03T14:46:56.948Z,4.83
2023-04-03T14:49:29.149Z,4.55
2023-04-03T14:51:58.518Z,4.84
2023-04-03T14:54:28.764Z,4.49
2023-04-03T14:56:58.563Z,4.20
2023-04-03T14:59:26.568Z,4.35
2023-04-03T15:01:53.850Z,4.46
2023-04-03T15:04:22.368Z,4.62
2023-04-03T15:06:50.473Z,4.54
2023-04-03T15:09:26.904Z,4.37
2023-04-03T15:11:55.982Z,4.35
2023-04-03T15:14:35.610Z,4.12
2023-04-03T15:17:12.046Z,4.18
2023-04-03T15:19:39.977Z,3.98
2023-04-03T15:22:07.774Z,4.04
2023-04-03T15:24:35.353Z,4.17
2023-04-03T15:27:02.771Z,3.90
2023-04-03T15:29:30.367Z,4.11
2023-04-03T15:31:57.584Z,4.26
2023-04-03T15:34:25.128Z,4.27
2023-04-03T15:36:55.474Z,4.17
2023-04-03T15:39:24.385Z,4.12
2023-04-03T15:41:53.284Z,4.10
2023-04-03T15:44:21.319Z,4.33
2023-04-03T15:46:51.119Z,4.19
2023-04-03T15:49:21.989Z,4.00
2023-04-03T15:51:49.336Z,4.06
2023-04-03T15:54:17.518Z,3.82
2023-04-03T15:56:44.737Z,3.70
2023-04-03T15:59:12.202Z,3.92
2023-04-03T16:01:41.488Z,3.63
2023-04-03T16:04:10.785Z,3.71
2023-04-03T16:06:39.050Z,4.08
2023-04-03T16:09:07.636Z,3.92
2023-04-03T16:11:38.338Z,4.08
2023-04-03T16:14:06.750Z,4.07
2023-04-03T16:16:34.254Z,4.29
2023-04-03T16:19:01.924Z,3.89
2023-04-03T16:21:29.434Z,3.87
2023-04-03T16:24:01.316Z,4.00
2023-04-03T16:26:28.954Z,3.92
2023-04-03T16:28:56.640Z,3.84
2023-04-03T16:31:26.288Z,3.95
2023-04-03T16:33:54.330Z,3.98
2023-04-03T16:36:21.596Z,3.98
2023-04-03T16:38:49.165Z,3.83
2023-04-03T16:41:16.385Z,3.89
2023-04-03T16:43:44.087Z,3.87
2023-04-03T16:46:11.394Z,3.76
2023-04-03T16:48:38.940Z,3.61
2023-04-03T16:51:06.203Z,3.56
2023-04-03T16:53:33.790Z,3.31
2023-04-03T16:56:01.177Z,3.31
2023-04-03T16:58:29.172Z,3.38
2023-04-03T17:00:56.506Z,3.48
2023-04-03T17:03:27.255Z,3.12
2023-04-03T17:05:54.644Z,3.22
2023-04-03T17:08:22.223Z,3.28
2023-04-03T17:10:51.681Z,3.22
2023-04-03T17:13:19.278Z,3.35
2023-04-03T17:15:46.508Z,3.58
2023-04-03T17:18:14.314Z,3.70
2023-04-03T17:20:41.734Z,3.67
2023-04-03T17:23:09.292Z,3.49
2023-04-03T17:25:36.494Z,3.54
2023-04-03T17:28:04.098Z,3.48
2023-04-03T17:30:31.397Z,3.59
2023-04-03T17:32:58.924Z,3.33
2023-04-03T17:35:26.214Z,3.49
2023-04-03T17:37:53.799Z,3.47
2023-04-03T17:40:21.083Z,3.74
2023-04-03T17:42:48.709Z,3.66
2023-04-03T17:45:16.225Z,3.67
2023-04-03T17:47:43.859Z,3.39
2023-04-03T17:50:11.527Z,3.64
2023-04-03T17:52:39.101Z,3.74
2023-04-03T17:55:06.716Z,3.61
2023-04-03T17:57:34.374Z,3.65
2023-04-03T18:00:01.688Z,3.57
2023-04-03T18:02:30.213Z,3.63
2023-04-03T18:04:57.696Z,3.58
2023-04-03T18:07:25.525Z,3.42
2023-04-03T18:09:53.040Z,3.48
2023-04-03T18:12:20.858Z,3.22
2023-04-03T18:14:49.431Z,3.28
2023-04-03T18:17:16.991Z,3.56
2023-04-03T18:19:44.208Z,3.48
2023-04-03T18:22:17.422Z,3.39
2023-04-03T18:24:44.802Z,3.31
2023-04-03T18:27:15.601Z,3.27
2023-04-03T18:29:45.191Z,3.18
2023-04-03T18:32:15.120Z,2.89
2023-04-03T18:34:42.468Z,3.13
2023-04-03T18:37:10.210Z,3.03
2023-04-03T18:39:37.466Z,3.22
2023-04-03T18:42:09.550Z,3.34
2023-04-03T18:44:38.165Z,3.32
2023-04-03T18:47:06.303Z,3.10
2023-04-03T18:49:36.414Z,3.41
2023-04-03T18:52:04.707Z,3.51
2023-04-03T18:54:32.658Z,3.22
2023-04-03T18:57:00.493Z,3.04
2023-04-03T18:59:27.963Z,3.21
2023-04-03T19:01:56.000Z,3.09
2023-04-03T19:04:24.434Z,3.12
2023-04-03T19:06:53.500Z,3.03
2023-04-03T19:09:21.348Z,3.04
2023-04-03T19:11:48.904Z,2.94
2023-04-03T19:14:17.136Z,2.93
2023-04-03T19:16:45.174Z,3.06
2023-04-03T19:19:12.749Z,2.96
2023-04-03T19:21:41.496Z,2.94
2023-04-03T19:24:10.645Z,2.95
2023-04-03T19:26:38.950Z,3.00
2023-04-03T19:29:06.352Z,2.89
2023-04-03T19:31:35.166Z,2.99
2023-04-03T19:34:04.058Z,2.98
2023-04-03T19:36:33.046Z,3.13
2023-04-03T19:39:00.374Z,3.00
2023-04-03T19:41:30.299Z,3.01
2023-04-03T19:43:58.246Z,2.68
2023-04-03T19:46:28.298Z,2.80
2023-04-03T19:48:56.109Z,2.77
2023-04-03T19:51:23.809Z,2.96
2023-04-03T19:53:52.048Z,2.94
2023-04-03T19:56:22.239Z,2.91
2023-04-03T19:58:54.173Z,3.07
2023-04-03T20:01:25.110Z,3.00
2023-04-03T20:03:52.557Z,3.04
2023-04-03T20:06:20.246Z,2.92
2023-04-03T20:08:47.557Z,2.84
2023-04-03T20:11:15.515Z,2.75
2023-04-03T20:13:42.839Z,2.85
2023-04-03T20:16:10.895Z,2.74
2023-04-03T20:18:38.799Z,2.72
2023-04-03T20:21:07.089Z,2.92
2023-04-03T20:23:36.582Z,2.83
2023-04-03T20:26:11.649Z,3.01
2023-04-03T20:28:43.101Z,2.84
2023-04-03T20:31:13.771Z,2.78
2023-04-03T20:33:41.101Z,2.90
2023-04-03T20:36:09.158Z,2.86
2023-04-03T20:38:36.494Z,2.98
2023-04-03T20:41:04.993Z,2.66
2023-04-03T20:43:32.473Z,2.74
2023-04-03T20:46:01.595Z,2.69
2023-04-03T20:48:31.261Z,2.87
2023-04-03T20:50:59.202Z,2.72
2023-04-03T20:53:27.279Z,2.96
2023-04-03T20:56:00.835Z,2.60
2023-04-03T20:58:33.405Z,2.82
2023-04-03T21:01:01.359Z,2.98
2023-04-03T21:03:30.760Z,3.18
2023-04-03T21:06:01.212Z,3.04
2023-04-03T21:09:06.141Z,3.14
2023-04-03T21:12:10.927Z,2.81
2023-04-03T21:15:15.754Z,3.13
2023-04-03T21:18:08.170Z,2.90
2023-04-03T21:20:35.387Z,2.96
2023-04-03T21:23:03.995Z,3.00
2023-04-03T21:25:31.871Z,2.78
2023-04-03T21:27:59.481Z,2.52
2023-04-03T21:30:27.206Z,3.02
2023-04-03T21:32:54.764Z,2.99
2023-04-03T21:35:22.032Z,3.04
2023-04-03T21:37:49.560Z,3.02
2023-04-03T21:40:16.896Z,3.08
2023-04-03T21:42:44.454Z,2.79
2023-04-03T21:45:16.599Z,2.74
2023-04-03T21:47:44.882Z,2.81
2023-04-03T21:50:12.449Z,2.83
2023-04-03T21:52:40.058Z,2.82
2023-04-03T21:55:08.741Z,2.75
2023-04-03T21:57:36.695Z,2.69
2023-04-03T22:00:10.809Z,2.71
2023-04-03T22:02:41.674Z,2.39
2023-04-03T22:05:09.090Z,2.51
2023-04-03T22:07:37.317Z,2.44
2023-04-03T22:10:05.547Z,2.41
2023-04-03T22:12:33.055Z,2.57
2023-04-03T22:15:00.653Z,2.68
2023-04-03T22:17:31.429Z,2.47
2023-04-03T22:19:58.695Z,2.54
2023-04-03T22:22:26.575Z,2.48
2023-04-03T22:24:54.006Z,2.17
2023-04-03T22:27:21.545Z,2.26
2023-04-03T22:29:48.815Z,2.12
2023-04-03T22:32:16.341Z,2.28
2023-04-03T22:34:43.637Z,2.55
2023-04-03T22:37:11.132Z,2.58
2023-04-03T22:39:38.299Z,2.52
2023-04-03T22:42:07.501Z,2.51
2023-04-03T22:44:36.732Z,2.33
2023-04-03T22:47:04.449Z,2.23
2023-04-03T22:49:32.248Z,2.35
2023-04-03T22:51:59.778Z,2.42
2023-04-03T22:54:27.022Z,2.58
2023-04-03T22:56:54.544Z,2.65
2023-04-03T22:59:21.840Z,2.67
2023-04-03T23:01:49.430Z,2.46
2023-04-03T23:04:16.777Z,2.57
2023-04-03T23:06:44.331Z,2.71
2023-04-03T23:09:11.582Z,2.41
2023-04-03T23:11:39.062Z,2.24
2023-04-03T23:14:06.498Z,2.45
2023-04-03T23:16:34.027Z,2.52
2023-04-03T23:19:01.443Z,2.46
2023-04-03T23:21:28.970Z,2.68
2023-04-03T23:23:56.223Z,2.51
2023-04-03T23:26:24.256Z,2.61
2023-04-03T23:28:51.454Z,2.58
2023-04-03T23:31:18.954Z,2.75
2023-04-03T23:33:46.380Z,2.54
2023-04-03T23:36:16.199Z,2.36
2023-04-03T23:38:43.566Z,2.42
2023-04-03T23:41:11.082Z,2.58
2023-04-03T23:43:39.767Z,2.58
2023-04-03T23:46:07.944Z,2.70
2023-04-03T23:48:35.185Z,2.64
2023-04-03T23:51:02.704Z,2.76
2023-04-03T23:53:29.992Z,2.74
2023-04-03T23:55:57.894Z,2.77
2023-04-03T23:58:25.071Z,2.55
